createdAt,value
2022-07-29T00:00:11.901Z,16.38
2022-07-29T00:01:19.402Z,16.38
2022-07-29T00:02:22.990Z,16.38
2022-07-29T00:03:59.310Z,16.38
2022-07-29T00:05:03.855Z,16.38
2022-07-29T00:06:07.066Z,16.44
2022-07-29T00:07:41.998Z,16.38
2022-07-29T00:08:51.151Z,16.38
2022-07-29T00:09:54.291Z,16.31
2022-07-29T00:11:29.241Z,16.31
2022-07-29T00:12:32.044Z,16.38
2022-07-29T00:13:36.007Z,16.38
2022-07-29T00:15:14.619Z,16.38
2022-07-29T00:16:17.396Z,16.38
2022-07-29T00:17:20.673Z,16.38
2022-07-29T00:18:55.143Z,16.38
2022-07-29T00:19:59.953Z,16.31
2022-07-29T00:21:02.767Z,16.38
2022-07-29T00:22:37.156Z,16.31
2022-07-29T00:23:39.936Z,16.31
2022-07-29T00:24:42.676Z,16.31
2022-07-29T00:26:19.793Z,16.25
2022-07-29T00:27:22.611Z,16.19
2022-07-29T00:28:25.787Z,16.19
2022-07-29T00:30:38.798Z,16.19
2022-07-29T00:31:41.878Z,16.19
2022-07-29T00:32:45.669Z,16.19
2022-07-29T00:34:21.487Z,16.19
2022-07-29T00:35:24.179Z,16.19
2022-07-29T00:36:27.805Z,16.19
2022-07-29T00:38:02.367Z,16.25
2022-07-29T00:39:05.168Z,16.19
2022-07-29T00:40:08.123Z,16.19
2022-07-29T00:41:50.602Z,16.19
2022-07-29T00:42:53.354Z,16.25
2022-07-29T00:43:56.780Z,16.25
2022-07-29T00:45:32.015Z,16.25
2022-07-29T00:46:34.822Z,16.25
2022-07-29T00:47:38.364Z,16.19
2022-07-29T00:49:13.129Z,16.13
2022-07-29T00:50:16.268Z,16.13
2022-07-29T00:51:18.931Z,16.06
2022-07-29T00:52:57.822Z,16.06
2022-07-29T00:54:02.117Z,16.06
2022-07-29T00:55:08.615Z,16.06
2022-07-29T00:56:43.800Z,16.06
2022-07-29T00:57:46.987Z,16.06
2022-07-29T00:58:51.477Z,16.06
2022-07-29T01:00:12.515Z,16.06
2022-07-29T01:01:15.685Z,16.00
2022-07-29T01:02:19.056Z,16.00
2022-07-29T01:03:54.177Z,16.00
2022-07-29T01:04:57.714Z,15.94
2022-07-29T01:06:24.762Z,15.94
2022-07-29T01:07:59.184Z,15.88
2022-07-29T01:09:01.963Z,15.94
2022-07-29T01:10:28.272Z,15.94
2022-07-29T01:12:02.839Z,15.94
2022-07-29T01:13:05.554Z,15.88
2022-07-29T01:14:11.315Z,15.81
2022-07-29T01:15:49.353Z,15.81
2022-07-29T01:16:54.193Z,15.81
2022-07-29T01:17:57.049Z,15.81
2022-07-29T01:19:37.438Z,15.81
2022-07-29T01:20:40.482Z,15.81
2022-07-29T01:21:44.219Z,15.81
2022-07-29T01:23:18.695Z,15.69
2022-07-29T01:24:21.652Z,15.75
2022-07-29T01:25:24.280Z,15.69
2022-07-29T01:27:07.383Z,15.69
2022-07-29T01:28:17.452Z,15.75
2022-07-29T01:29:35.853Z,15.75
2022-07-29T01:31:25.212Z,15.81
2022-07-29T01:33:09.729Z,15.81
2022-07-29T01:34:13.357Z,15.81
2022-07-29T01:35:48.368Z,15.81
2022-07-29T01:36:51.120Z,15.81
2022-07-29T01:37:53.821Z,15.81
2022-07-29T01:39:29.163Z,15.81
2022-07-29T01:40:36.353Z,15.75
2022-07-29T01:41:40.124Z,15.75
2022-07-29T01:43:14.513Z,15.69
2022-07-29T01:44:17.854Z,15.63
2022-07-29T01:45:20.860Z,15.63
2022-07-29T01:46:55.866Z,15.63
2022-07-29T01:47:58.734Z,15.56
2022-07-29T01:49:01.481Z,15.56
2022-07-29T01:50:36.740Z,15.56
2022-07-29T01:51:39.319Z,15.50
2022-07-29T01:52:42.205Z,15.50
2022-07-29T01:54:24.115Z,15.50
2022-07-29T01:55:27.379Z,15.50
2022-07-29T01:56:33.904Z,15.44
2022-07-29T01:58:08.451Z,15.44
2022-07-29T01:59:11.563Z,15.44
2022-07-29T02:00:12.091Z,15.50
2022-07-29T02:01:18.618Z,15.50
2022-07-29T02:02:21.942Z,15.44
2022-07-29T02:03:56.336Z,15.44
2022-07-29T02:05:16.364Z,15.50
2022-07-29T02:06:19.446Z,15.50
2022-07-29T02:07:53.981Z,15.56
2022-07-29T02:08:56.742Z,15.56
2022-07-29T02:10:00.270Z,15.56
2022-07-29T02:11:38.361Z,15.56
2022-07-29T02:12:41.056Z,15.56
2022-07-29T02:13:48.268Z,15.56
2022-07-29T02:15:23.386Z,15.44
2022-07-29T02:16:26.688Z,15.38
2022-07-29T02:17:29.698Z,15.38
2022-07-29T02:19:07.695Z,15.44
2022-07-29T02:20:10.516Z,15.44
2022-07-29T02:21:14.823Z,15.44
2022-07-29T02:22:49.971Z,15.44
2022-07-29T02:23:52.578Z,15.50
2022-07-29T02:24:55.781Z,15.50
2022-07-29T02:26:51.634Z,15.56
2022-07-29T02:27:54.280Z,15.56
2022-07-29T02:28:56.916Z,15.56
2022-07-29T02:30:31.388Z,15.50
2022-07-29T02:31:35.039Z,15.50
2022-07-29T02:32:37.965Z,15.50
2022-07-29T02:34:16.399Z,15.50
2022-07-29T02:35:22.749Z,15.50
2022-07-29T02:36:31.780Z,15.50
2022-07-29T02:38:07.326Z,15.50
2022-07-29T02:39:10.834Z,15.50
2022-07-29T02:40:13.554Z,15.56
2022-07-29T02:41:48.631Z,15.56
2022-07-29T02:42:51.245Z,15.56
2022-07-29T02:43:53.908Z,15.50
2022-07-29T02:45:29.480Z,15.50
2022-07-29T02:46:37.969Z,15.50
2022-07-29T02:47:41.553Z,15.50
2022-07-29T02:49:17.050Z,15.50
2022-07-29T02:50:19.954Z,15.50
2022-07-29T02:51:41.441Z,15.50
2022-07-29T02:53:18.982Z,15.50
2022-07-29T02:54:21.665Z,15.56
2022-07-29T02:55:24.356Z,15.50
2022-07-29T02:57:00.349Z,15.50
2022-07-29T02:58:03.065Z,15.44
2022-07-29T02:59:05.803Z,15.44
2022-07-29T03:00:11.732Z,15.44
2022-07-29T03:01:20.983Z,15.44
2022-07-29T03:02:24.945Z,15.44
2022-07-29T03:04:01.011Z,15.44
2022-07-29T03:05:05.121Z,15.50
2022-07-29T03:06:08.670Z,15.50
2022-07-29T03:08:08.007Z,15.44
2022-07-29T03:09:13.284Z,15.44
2022-07-29T03:10:16.511Z,15.44
2022-07-29T03:11:51.138Z,15.38
2022-07-29T03:12:53.973Z,15.31
2022-07-29T03:13:56.812Z,15.31
2022-07-29T03:15:33.734Z,15.38
2022-07-29T03:16:41.001Z,15.38
2022-07-29T03:17:44.035Z,15.38
2022-07-29T03:19:18.548Z,15.44
2022-07-29T03:20:21.432Z,15.44
2022-07-29T03:21:24.355Z,15.44
2022-07-29T03:22:59.693Z,15.50
2022-07-29T03:24:10.559Z,15.50
2022-07-29T03:25:14.494Z,15.50
2022-07-29T03:26:49.125Z,15.56
2022-07-29T03:27:51.944Z,15.56
2022-07-29T03:28:56.977Z,15.56
2022-07-29T03:30:56.872Z,15.56
2022-07-29T03:32:01.559Z,15.63
2022-07-29T03:33:13.370Z,15.63
2022-07-29T03:34:48.840Z,15.56
2022-07-29T03:35:51.708Z,15.56
2022-07-29T03:36:54.416Z,15.56
2022-07-29T03:38:29.492Z,15.56
2022-07-29T03:39:32.440Z,15.56
2022-07-29T03:40:35.157Z,15.50
2022-07-29T03:42:09.876Z,15.50
2022-07-29T03:43:18.422Z,15.56
2022-07-29T03:44:30.277Z,15.50
2022-07-29T03:46:05.390Z,15.50
2022-07-29T03:47:11.878Z,15.50
2022-07-29T03:48:47.296Z,15.56
2022-07-29T03:50:22.529Z,15.50
2022-07-29T03:51:33.827Z,15.50
2022-07-29T03:52:37.239Z,15.50
2022-07-29T03:54:14.646Z,15.50
2022-07-29T03:55:18.467Z,15.50
2022-07-29T03:56:21.064Z,15.44
2022-07-29T03:57:57.732Z,15.44
2022-07-29T03:59:00.490Z,15.44
2022-07-29T04:00:12.523Z,15.44
2022-07-29T04:01:15.225Z,15.44
2022-07-29T04:02:22.321Z,15.50
2022-07-29T04:04:02.423Z,15.50
2022-07-29T04:05:41.902Z,15.50
2022-07-29T04:06:45.103Z,15.50
2022-07-29T04:07:48.543Z,15.50
2022-07-29T04:09:23.608Z,15.50
2022-07-29T04:10:31.607Z,15.50
2022-07-29T04:12:02.383Z,15.50
2022-07-29T04:13:38.738Z,15.50
2022-07-29T04:14:41.702Z,15.50
2022-07-29T04:15:44.728Z,15.50
2022-07-29T04:17:20.315Z,15.50
2022-07-29T04:18:24.072Z,15.44
2022-07-29T04:19:28.490Z,15.44
2022-07-29T04:21:03.208Z,15.44
2022-07-29T04:22:06.101Z,15.44
2022-07-29T04:23:09.066Z,15.44
2022-07-29T04:25:04.050Z,15.44
2022-07-29T04:26:07.286Z,15.44
2022-07-29T04:27:11.519Z,15.38
2022-07-29T04:28:46.354Z,15.38
2022-07-29T04:29:57.427Z,15.38
2022-07-29T04:31:00.706Z,15.38
2022-07-29T04:32:43.750Z,15.38
2022-07-29T04:33:46.477Z,15.38
2022-07-29T04:34:49.914Z,15.38
2022-07-29T04:36:38.054Z,15.38
2022-07-29T04:37:41.027Z,15.38
2022-07-29T04:38:52.071Z,15.38
2022-07-29T04:40:38.639Z,15.31
2022-07-29T04:41:42.305Z,15.31
2022-07-29T04:42:49.508Z,15.31
2022-07-29T04:44:32.291Z,15.31
2022-07-29T04:45:42.509Z,15.31
2022-07-29T04:46:45.785Z,15.31
2022-07-29T04:48:25.310Z,15.25
2022-07-29T04:49:32.093Z,15.25
2022-07-29T04:50:35.188Z,15.25
2022-07-29T04:52:10.133Z,15.19
2022-07-29T04:53:13.262Z,15.19
2022-07-29T04:54:16.483Z,15.19
2022-07-29T04:55:51.326Z,15.19
2022-07-29T04:56:54.368Z,15.19
2022-07-29T04:57:57.161Z,15.19
2022-07-29T04:59:33.499Z,15.25
2022-07-29T05:00:12.346Z,15.25
2022-07-29T05:01:20.074Z,15.25
2022-07-29T05:02:24.061Z,15.25
2022-07-29T05:04:01.331Z,15.19
2022-07-29T05:05:05.638Z,15.19
2022-07-29T05:06:08.398Z,15.19
2022-07-29T05:07:43.444Z,15.19
2022-07-29T05:08:46.228Z,15.19
2022-07-29T05:09:49.229Z,15.19
2022-07-29T05:11:26.124Z,15.19
2022-07-29T05:12:33.236Z,15.13
2022-07-29T05:13:46.047Z,15.13
2022-07-29T05:15:22.550Z,15.06
2022-07-29T05:16:25.779Z,15.06
2022-07-29T05:17:28.717Z,15.00
2022-07-29T05:19:09.703Z,14.88
2022-07-29T05:20:20.270Z,14.88
2022-07-29T05:21:24.765Z,14.81
2022-07-29T05:22:59.542Z,14.75
2022-07-29T05:24:02.461Z,14.75
2022-07-29T05:25:09.270Z,14.69
2022-07-29T05:27:02.500Z,14.63
2022-07-29T05:28:05.207Z,14.56
2022-07-29T05:29:08.164Z,14.56
2022-07-29T05:31:20.175Z,14.56
2022-07-29T05:32:23.281Z,14.56
2022-07-29T05:33:35.865Z,14.56
2022-07-29T05:35:24.936Z,14.50
2022-07-29T05:36:33.511Z,14.50
2022-07-29T05:37:36.390Z,14.50
2022-07-29T05:39:11.279Z,14.50
2022-07-29T05:40:43.685Z,14.50
2022-07-29T05:41:51.737Z,14.50
2022-07-29T05:43:27.021Z,14.56
2022-07-29T05:44:29.822Z,14.50
2022-07-29T05:45:32.796Z,14.50
2022-07-29T05:47:20.592Z,14.50
2022-07-29T05:48:23.588Z,14.50
2022-07-29T05:49:27.519Z,14.56
2022-07-29T05:51:02.318Z,14.56
2022-07-29T05:52:05.218Z,14.56
2022-07-29T05:53:20.102Z,14.56
2022-07-29T05:54:55.974Z,14.50
2022-07-29T05:55:58.938Z,14.50
2022-07-29T05:57:01.711Z,14.50
2022-07-29T05:58:36.488Z,14.44
2022-07-29T05:59:52.716Z,14.44
2022-07-29T06:00:12.167Z,14.44
2022-07-29T06:01:15.657Z,14.44
2022-07-29T06:02:19.732Z,14.44
2022-07-29T06:03:55.469Z,14.44
2022-07-29T06:05:00.069Z,14.50
2022-07-29T06:06:09.150Z,14.56
2022-07-29T06:07:50.186Z,14.63
2022-07-29T06:08:54.709Z,14.63
2022-07-29T06:10:11.270Z,14.69
2022-07-29T06:11:50.257Z,14.75
2022-07-29T06:12:53.323Z,14.75
2022-07-29T06:13:56.359Z,14.81
2022-07-29T06:15:36.168Z,14.81
2022-07-29T06:16:39.961Z,14.88
2022-07-29T06:17:59.194Z,14.88
2022-07-29T06:19:35.806Z,15.00
2022-07-29T06:20:38.801Z,15.00
2022-07-29T06:21:42.076Z,15.06
2022-07-29T06:23:17.033Z,15.13
2022-07-29T06:24:20.345Z,15.13
2022-07-29T06:25:23.356Z,15.13
2022-07-29T06:27:06.334Z,15.19
2022-07-29T06:28:10.562Z,15.19
2022-07-29T06:29:13.507Z,15.19
2022-07-29T06:30:48.539Z,15.25
2022-07-29T06:31:52.171Z,15.25
2022-07-29T06:32:57.908Z,15.25
2022-07-29T06:34:35.521Z,15.19
2022-07-29T06:36:30.109Z,15.25
2022-07-29T06:37:35.382Z,15.25
2022-07-29T06:39:56.656Z,15.25
2022-07-29T06:41:02.131Z,15.25
2022-07-29T06:42:04.980Z,15.25
2022-07-29T06:43:50.842Z,15.25
2022-07-29T06:44:58.164Z,15.25
2022-07-29T06:46:08.895Z,15.25
2022-07-29T06:47:44.455Z,15.25
2022-07-29T06:48:49.803Z,15.31
2022-07-29T06:49:53.530Z,15.31
2022-07-29T06:51:31.463Z,15.31
2022-07-29T06:52:34.552Z,15.38
2022-07-29T06:53:37.454Z,15.44
2022-07-29T06:55:32.948Z,15.50
2022-07-29T06:56:38.696Z,15.50
2022-07-29T06:57:42.464Z,15.50
2022-07-29T06:59:26.218Z,15.50
2022-07-29T07:00:12.640Z,15.50
2022-07-29T07:01:15.693Z,15.50
2022-07-29T07:02:19.999Z,15.56
2022-07-29T07:03:55.538Z,15.56
2022-07-29T07:04:59.229Z,15.63
2022-07-29T07:06:04.242Z,15.63
2022-07-29T07:07:44.562Z,15.63
2022-07-29T07:08:47.446Z,15.69
2022-07-29T07:09:50.439Z,15.69
2022-07-29T07:11:25.439Z,15.69
2022-07-29T07:12:30.714Z,15.63
2022-07-29T07:13:33.593Z,15.69
2022-07-29T07:15:16.473Z,15.75
2022-07-29T07:16:31.296Z,15.75
2022-07-29T07:17:38.895Z,15.75
2022-07-29T07:19:14.207Z,15.81
2022-07-29T07:20:17.118Z,15.81
2022-07-29T07:21:22.574Z,15.88
2022-07-29T07:23:02.346Z,15.88
2022-07-29T07:24:05.333Z,15.94
2022-07-29T07:25:09.125Z,15.94
2022-07-29T07:26:45.701Z,16.00
2022-07-29T07:27:48.528Z,16.00
2022-07-29T07:28:51.428Z,15.94
2022-07-29T07:30:30.082Z,15.94
2022-07-29T07:31:33.495Z,15.94
2022-07-29T07:32:41.746Z,16.00
2022-07-29T07:34:17.007Z,16.06
2022-07-29T07:35:31.180Z,16.06
2022-07-29T07:36:34.005Z,16.13
2022-07-29T07:38:10.299Z,16.13
2022-07-29T07:39:13.040Z,16.13
2022-07-29T07:40:18.546Z,16.19
2022-07-29T07:41:53.894Z,16.19
2022-07-29T07:42:56.590Z,16.25
2022-07-29T07:43:59.529Z,16.25
2022-07-29T07:46:04.337Z,16.25
2022-07-29T07:47:07.869Z,16.25
2022-07-29T07:48:15.618Z,16.31
2022-07-29T07:49:50.716Z,16.38
2022-07-29T07:50:59.300Z,16.44
2022-07-29T07:52:02.184Z,16.44
2022-07-29T07:53:37.049Z,16.50
2022-07-29T07:54:43.029Z,16.44
2022-07-29T07:57:47.642Z,16.38
2022-07-29T07:58:50.593Z,16.38
2022-07-29T07:59:53.603Z,16.44
2022-07-29T08:00:12.274Z,16.44
2022-07-29T08:01:15.674Z,16.44
2022-07-29T08:02:42.927Z,16.50
2022-07-29T08:04:29.631Z,16.56
2022-07-29T08:05:32.956Z,16.56
2022-07-29T08:06:36.642Z,16.63
2022-07-29T08:08:12.859Z,16.69
2022-07-29T08:09:28.780Z,16.69
2022-07-29T08:10:32.548Z,16.75
2022-07-29T08:12:27.394Z,16.81
2022-07-29T08:13:30.405Z,16.81
2022-07-29T08:14:33.396Z,16.88
2022-07-29T08:16:09.010Z,16.94
2022-07-29T08:17:12.286Z,17.00
2022-07-29T08:18:16.062Z,17.00
2022-07-29T08:19:50.758Z,17.06
2022-07-29T08:20:54.778Z,17.06
2022-07-29T08:22:01.341Z,17.13
2022-07-29T08:23:47.211Z,17.13
2022-07-29T08:24:59.406Z,17.13
2022-07-29T08:26:03.663Z,17.13
2022-07-29T08:27:43.759Z,17.13
2022-07-29T08:28:47.307Z,17.19
2022-07-29T08:29:54.986Z,17.19
2022-07-29T08:31:30.012Z,17.25
2022-07-29T08:33:52.619Z,17.31
2022-07-29T08:35:35.561Z,17.31
2022-07-29T08:36:39.511Z,17.38
2022-07-29T08:37:48.014Z,17.38
2022-07-29T08:39:23.315Z,17.38
2022-07-29T08:40:30.604Z,17.44
2022-07-29T08:41:35.417Z,17.44
2022-07-29T08:43:26.925Z,17.44
2022-07-29T08:44:31.180Z,17.44
2022-07-29T08:45:34.334Z,17.50
2022-07-29T08:47:16.776Z,17.56
2022-07-29T08:48:19.566Z,17.56
2022-07-29T08:49:22.803Z,17.69
2022-07-29T08:50:57.770Z,17.69
2022-07-29T08:52:02.371Z,17.81
2022-07-29T08:53:05.325Z,17.81
2022-07-29T08:54:40.226Z,17.81
2022-07-29T08:55:43.106Z,17.88
2022-07-29T08:56:46.145Z,17.94
2022-07-29T08:58:38.214Z,17.94
2022-07-29T08:59:55.742Z,17.94
2022-07-29T09:00:12.160Z,18.00
2022-07-29T09:01:20.038Z,18.00
2022-07-29T09:02:44.074Z,18.06
2022-07-29T09:04:22.066Z,18.13
2022-07-29T09:05:24.908Z,18.13
2022-07-29T09:06:34.317Z,18.19
2022-07-29T09:08:15.386Z,18.19
2022-07-29T09:09:18.702Z,18.13
2022-07-29T09:10:21.658Z,18.06
2022-07-29T09:11:57.047Z,18.06
2022-07-29T09:13:18.668Z,18.06
2022-07-29T09:14:23.241Z,18.06
2022-07-29T09:15:57.843Z,18.13
2022-07-29T09:17:42.441Z,18.19
2022-07-29T09:19:05.944Z,18.25
2022-07-29T09:20:40.855Z,18.31
2022-07-29T09:21:43.674Z,18.31
2022-07-29T09:22:49.588Z,18.38
2022-07-29T09:24:35.389Z,18.38
2022-07-29T09:25:38.952Z,18.31
2022-07-29T09:26:41.657Z,18.31
2022-07-29T09:28:16.820Z,18.25
2022-07-29T09:29:19.752Z,18.19
2022-07-29T09:30:31.575Z,18.25
2022-07-29T09:32:06.998Z,18.25
2022-07-29T09:33:10.089Z,18.25
2022-07-29T09:34:12.920Z,18.25
2022-07-29T09:35:56.613Z,18.25
2022-07-29T09:37:01.361Z,18.25
2022-07-29T09:38:04.204Z,18.25
2022-07-29T09:39:39.069Z,18.25
2022-07-29T09:40:46.853Z,18.25
2022-07-29T09:41:56.201Z,18.25
2022-07-29T09:43:32.391Z,18.25
2022-07-29T09:44:35.129Z,18.25
2022-07-29T09:45:38.069Z,18.31
2022-07-29T09:47:19.633Z,18.38
2022-07-29T09:48:22.541Z,18.38
2022-07-29T09:49:25.455Z,18.38
2022-07-29T09:51:01.209Z,18.44
2022-07-29T09:52:24.626Z,18.44
2022-07-29T09:53:27.645Z,18.44
2022-07-29T09:55:05.183Z,18.44
2022-07-29T09:56:16.465Z,18.50
2022-07-29T09:57:19.275Z,18.50
2022-07-29T09:58:59.995Z,18.50
2022-07-29T10:00:12.623Z,18.50
2022-07-29T10:01:16.133Z,18.56
2022-07-29T10:02:23.680Z,18.56
2022-07-29T10:03:59.657Z,18.44
2022-07-29T10:05:03.042Z,18.44
2022-07-29T10:06:11.957Z,18.44
2022-07-29T10:07:53.920Z,18.44
2022-07-29T10:08:57.263Z,18.44
2022-07-29T10:10:02.957Z,18.50
2022-07-29T10:11:56.201Z,18.56
2022-07-29T10:13:04.387Z,18.56
2022-07-29T10:14:13.903Z,18.56
2022-07-29T10:15:48.985Z,18.50
2022-07-29T10:16:54.542Z,18.50
2022-07-29T10:17:57.433Z,18.50
2022-07-29T10:19:33.056Z,18.50
2022-07-29T10:20:36.064Z,18.56
2022-07-29T10:21:39.104Z,18.63
2022-07-29T10:23:46.594Z,18.69
2022-07-29T10:25:01.137Z,18.75
2022-07-29T10:26:03.882Z,18.81
2022-07-29T10:27:38.824Z,18.88
2022-07-29T10:28:41.755Z,18.94
2022-07-29T10:29:47.826Z,18.94
2022-07-29T10:31:22.629Z,18.88
2022-07-29T10:32:26.341Z,18.81
2022-07-29T10:33:34.581Z,18.81
2022-07-29T10:35:09.729Z,18.81
2022-07-29T10:36:12.709Z,18.81
2022-07-29T10:37:20.590Z,18.81
2022-07-29T10:39:05.414Z,18.81
2022-07-29T10:40:31.919Z,18.88
2022-07-29T10:41:44.466Z,18.88
2022-07-29T10:43:29.817Z,18.88
2022-07-29T10:44:38.309Z,18.88
2022-07-29T10:45:47.027Z,18.88
2022-07-29T11:00:12.512Z,19.19
2022-07-29T11:01:37.281Z,19.19
2022-07-29T11:03:31.863Z,19.06
2022-07-29T11:05:15.251Z,19.13
2022-07-29T11:06:43.670Z,19.19
2022-07-29T11:07:52.078Z,19.31
2022-07-29T11:09:44.460Z,19.50
2022-07-29T11:10:48.807Z,19.63
2022-07-29T11:11:54.214Z,19.75
2022-07-29T11:13:31.182Z,20.00
2022-07-29T11:14:45.465Z,20.06
2022-07-29T11:15:49.731Z,20.13
2022-07-29T12:00:12.249Z,22.69
2022-07-29T12:08:22.233Z,23.50
2022-07-29T12:09:28.109Z,23.63
2022-07-29T12:11:30.204Z,24.00
2022-07-29T12:12:40.582Z,24.00
2022-07-29T12:13:44.998Z,24.00
2022-07-29T12:15:22.367Z,24.00
2022-07-29T12:16:49.830Z,24.06
2022-07-29T12:17:54.506Z,24.06
2022-07-29T12:19:37.844Z,23.94
2022-07-29T12:20:43.361Z,23.88
2022-07-29T12:21:56.566Z,23.94
2022-07-29T12:23:37.560Z,24.06
2022-07-29T12:24:50.710Z,24.13
2022-07-29T12:26:31.502Z,24.06
2022-07-29T12:28:27.421Z,24.13
2022-07-29T12:29:37.955Z,24.31
2022-07-29T12:30:52.410Z,24.38
2022-07-29T12:33:05.631Z,24.50
2022-07-29T12:34:08.720Z,24.44
2022-07-29T12:35:12.679Z,24.44
2022-07-29T12:36:58.535Z,24.38
2022-07-29T12:38:22.170Z,24.25
2022-07-29T12:39:28.620Z,24.19
2022-07-29T12:41:04.565Z,24.38
2022-07-29T12:42:12.169Z,24.50
2022-07-29T12:43:16.608Z,24.75
2022-07-29T12:44:51.139Z,24.88
2022-07-29T12:45:53.889Z,24.94
2022-07-29T12:46:57.047Z,25.00
2022-07-29T12:48:32.066Z,25.25
2022-07-29T12:49:39.018Z,25.31
2022-07-29T12:50:41.832Z,25.25
2022-07-29T12:52:16.676Z,25.25
2022-07-29T12:53:19.737Z,25.31
2022-07-29T12:54:23.582Z,25.44
2022-07-29T12:56:01.483Z,25.56
2022-07-29T12:57:35.434Z,25.69
2022-07-29T12:58:40.280Z,25.75
2022-07-29T13:00:12.474Z,25.94
2022-07-29T13:01:17.475Z,26.00
2022-07-29T13:02:20.766Z,26.06
2022-07-29T13:04:00.049Z,26.13
2022-07-29T13:05:02.814Z,26.06
2022-07-29T13:06:06.203Z,26.06
2022-07-29T13:07:55.463Z,26.06
2022-07-29T13:09:13.993Z,26.25
2022-07-29T13:10:16.704Z,26.38
2022-07-29T13:11:53.920Z,26.56
2022-07-29T13:12:57.331Z,26.63
2022-07-29T13:14:05.998Z,26.75
2022-07-29T13:15:42.110Z,26.81
2022-07-29T13:16:44.907Z,26.69
2022-07-29T13:17:48.239Z,26.38
2022-07-29T13:19:26.359Z,26.38
2022-07-29T13:20:29.181Z,26.63
2022-07-29T13:21:32.456Z,26.56
2022-07-29T13:23:08.071Z,26.38
2022-07-29T13:24:16.858Z,26.38
2022-07-29T13:25:22.713Z,26.50
2022-07-29T13:26:57.270Z,26.56
2022-07-29T13:28:03.170Z,26.63
2022-07-29T13:29:06.119Z,26.63
2022-07-29T13:30:44.546Z,26.75
2022-07-29T13:31:48.118Z,26.75
2022-07-29T13:32:51.571Z,26.75
2022-07-29T13:34:27.870Z,26.75
2022-07-29T13:35:30.554Z,26.75
2022-07-29T13:36:41.500Z,26.69
2022-07-29T13:38:16.476Z,26.75
2022-07-29T13:39:28.219Z,26.69
2022-07-29T13:40:39.442Z,26.63
2022-07-29T13:42:14.546Z,26.50
2022-07-29T13:43:17.181Z,26.63
2022-07-29T13:44:24.874Z,26.75
2022-07-29T13:46:03.917Z,26.94
2022-07-29T13:47:07.194Z,26.94
2022-07-29T13:48:24.399Z,27.00
2022-07-29T13:49:59.764Z,26.94
2022-07-29T13:51:04.640Z,27.06
2022-07-29T13:52:07.508Z,27.00
2022-07-29T13:53:41.997Z,26.81
2022-07-29T13:54:44.782Z,26.88
2022-07-29T13:55:47.647Z,26.94
2022-07-29T13:57:23.427Z,27.25
2022-07-29T13:58:26.302Z,27.38
2022-07-29T13:59:29.171Z,27.38
2022-07-29T14:00:11.922Z,27.38
2022-07-29T14:01:14.851Z,27.44
2022-07-29T14:02:17.969Z,27.50
2022-07-29T14:03:56.009Z,27.69
2022-07-29T14:04:59.565Z,27.69
2022-07-29T14:06:05.923Z,27.69
2022-07-29T14:07:44.760Z,27.69
2022-07-29T14:08:47.503Z,27.75
2022-07-29T14:09:50.217Z,27.88
2022-07-29T14:11:31.737Z,27.81
2022-07-29T14:12:35.120Z,27.81
2022-07-29T14:13:38.052Z,27.88
2022-07-29T14:15:12.721Z,27.88
2022-07-29T14:16:19.778Z,27.69
2022-07-29T14:17:33.044Z,27.69
2022-07-29T14:19:07.607Z,27.56
2022-07-29T14:20:11.380Z,27.50
2022-07-29T14:21:14.642Z,27.44
2022-07-29T14:22:53.248Z,27.38
2022-07-29T14:24:01.321Z,27.50
2022-07-29T14:25:23.919Z,27.50
2022-07-29T14:27:10.570Z,27.63
2022-07-29T14:28:33.312Z,27.69
2022-07-29T14:29:39.250Z,27.81
2022-07-29T14:31:13.748Z,27.88
2022-07-29T14:32:17.099Z,28.00
2022-07-29T14:33:19.998Z,28.06
2022-07-29T14:34:59.201Z,28.06
2022-07-29T14:36:01.926Z,28.00
2022-07-29T14:37:04.649Z,28.06
2022-07-29T14:38:52.542Z,28.19
2022-07-29T14:39:55.274Z,28.25
2022-07-29T14:40:57.980Z,28.25
2022-07-29T14:42:33.168Z,28.13
2022-07-29T14:43:35.788Z,28.13
2022-07-29T14:44:38.537Z,28.00
2022-07-29T14:46:14.925Z,27.81
2022-07-29T14:47:23.350Z,27.75
2022-07-29T14:48:31.195Z,27.75
2022-07-29T14:50:06.296Z,27.81
2022-07-29T14:51:18.130Z,27.88
2022-07-29T14:52:31.162Z,27.88
2022-07-29T14:54:07.029Z,27.75
2022-07-29T14:55:19.476Z,27.69
2022-07-29T14:56:36.635Z,27.69
2022-07-29T14:58:16.828Z,27.69
2022-07-29T14:59:32.133Z,27.44
2022-07-29T15:00:12.717Z,27.44
2022-07-29T15:01:15.490Z,27.38
2022-07-29T15:02:18.771Z,27.44
2022-07-29T15:04:45.823Z,27.50
2022-07-29T15:05:48.445Z,27.50
2022-07-29T15:06:51.188Z,27.56
2022-07-29T15:08:25.687Z,27.63
2022-07-29T15:09:28.376Z,27.38
2022-07-29T15:10:50.382Z,27.25
2022-07-29T15:12:25.034Z,27.13
2022-07-29T15:13:28.768Z,27.06
2022-07-29T15:14:31.485Z,27.00
2022-07-29T15:16:05.941Z,27.06
2022-07-29T15:17:10.109Z,27.06
2022-07-29T15:18:12.944Z,27.13
2022-07-29T15:19:55.317Z,27.25
2022-07-29T15:20:58.065Z,27.19
2022-07-29T15:22:01.509Z,27.13
2022-07-29T15:23:36.243Z,27.06
2022-07-29T15:24:39.036Z,27.13
2022-07-29T15:25:41.734Z,27.13
2022-07-29T15:27:16.172Z,27.19
2022-07-29T15:28:27.669Z,27.25
2022-07-29T15:29:30.310Z,27.38
2022-07-29T15:31:19.931Z,27.50
2022-07-29T15:32:23.436Z,27.56
2022-07-29T15:33:30.886Z,27.56
2022-07-29T15:35:13.073Z,27.44
2022-07-29T15:36:50.119Z,27.44
2022-07-29T15:37:54.553Z,27.50
2022-07-29T15:39:35.714Z,27.50
2022-07-29T15:40:43.133Z,27.50
2022-07-29T15:41:45.825Z,27.44
2022-07-29T15:43:24.520Z,27.44
2022-07-29T15:44:29.350Z,27.44
2022-07-29T15:45:33.626Z,27.38
2022-07-29T15:47:10.740Z,27.25
2022-07-29T15:48:14.927Z,27.25
2022-07-29T15:49:23.619Z,27.19
2022-07-29T15:51:22.019Z,27.19
2022-07-29T15:52:26.427Z,27.13
2022-07-29T15:53:33.133Z,27.06
2022-07-29T15:55:18.113Z,26.81
2022-07-29T15:56:25.511Z,26.63
2022-07-29T15:57:28.154Z,26.56
2022-07-29T15:59:07.117Z,26.63
2022-07-29T16:00:12.143Z,26.69
2022-07-29T16:01:15.551Z,26.81
2022-07-29T16:02:22.931Z,26.88
2022-07-29T16:03:57.497Z,26.94
2022-07-29T16:05:01.054Z,26.94
2022-07-29T16:05:41.695Z,26.94
2022-07-29T16:06:44.704Z,26.94
2022-07-29T16:07:49.206Z,26.94
2022-07-29T16:09:23.742Z,26.94
2022-07-29T16:10:33.467Z,26.88
2022-07-29T16:11:36.273Z,26.88
2022-07-29T16:13:22.122Z,26.88
2022-07-29T16:14:28.340Z,26.94
2022-07-29T16:15:32.050Z,26.94
2022-07-29T16:17:22.784Z,27.06
2022-07-29T16:18:30.045Z,27.06
2022-07-29T16:19:33.105Z,27.06
2022-07-29T16:21:09.037Z,27.06
2022-07-29T16:22:11.757Z,27.06
2022-07-29T16:23:14.637Z,27.00
2022-07-29T16:24:49.483Z,26.94
2022-07-29T16:26:00.620Z,26.94
2022-07-29T16:27:05.943Z,26.94
2022-07-29T16:28:50.121Z,26.94
2022-07-29T16:29:54.505Z,26.88
2022-07-29T16:30:59.023Z,26.75
2022-07-29T16:32:34.599Z,26.63
2022-07-29T16:33:55.293Z,26.56
2022-07-29T16:34:58.517Z,26.50
2022-07-29T16:36:48.273Z,26.50
2022-07-29T16:37:51.900Z,26.56
2022-07-29T16:38:54.615Z,26.63
2022-07-29T16:40:29.331Z,26.81
2022-07-29T16:41:32.050Z,26.88
2022-07-29T16:42:46.473Z,26.81
2022-07-29T16:44:21.675Z,26.75
2022-07-29T16:45:42.626Z,26.69
2022-07-29T16:47:00.939Z,26.69
2022-07-29T16:48:41.827Z,26.63
2022-07-29T16:49:53.181Z,26.50
2022-07-29T16:50:55.981Z,26.38
2022-07-29T16:52:33.858Z,26.25
2022-07-29T16:53:36.465Z,26.13
2022-07-29T16:54:42.263Z,26.13
2022-07-29T16:56:17.632Z,26.19
2022-07-29T16:57:20.539Z,26.25
2022-07-29T16:58:23.327Z,26.25
2022-07-29T17:00:12.410Z,26.25
2022-07-29T17:01:15.789Z,26.25
2022-07-29T17:02:19.408Z,26.31
2022-07-29T17:03:58.239Z,26.38
2022-07-29T17:05:03.448Z,26.38
2022-07-29T17:06:29.647Z,26.44
2022-07-29T17:08:04.660Z,26.38
2022-07-29T17:09:07.624Z,26.38
2022-07-29T17:10:10.408Z,26.31
2022-07-29T17:11:51.539Z,26.31
2022-07-29T17:12:56.867Z,26.31
2022-07-29T17:14:01.598Z,26.31
2022-07-29T17:15:41.902Z,26.25
2022-07-29T17:16:54.392Z,26.25
2022-07-29T17:18:53.479Z,26.19
2022-07-29T17:20:28.208Z,26.13
2022-07-29T17:21:32.086Z,26.13
2022-07-29T17:23:04.942Z,26.06
2022-07-29T17:24:41.001Z,25.94
2022-07-29T17:25:44.615Z,25.81
2022-07-29T17:26:47.315Z,25.75
2022-07-29T17:28:22.558Z,25.63
2022-07-29T17:29:25.349Z,25.63
2022-07-29T17:30:28.415Z,25.63
2022-07-29T17:32:04.141Z,25.56
2022-07-29T17:33:10.563Z,25.56
2022-07-29T17:34:13.241Z,25.56
2022-07-29T17:35:48.137Z,25.56
2022-07-29T17:36:50.783Z,25.56